createdAt,value
2022-11-15T00:01:18.010Z,15.87
2022-11-15T00:03:45.456Z,14.20
2022-11-15T00:06:12.583Z,16.37
2022-11-15T00:08:39.525Z,15.20
2022-11-15T00:11:06.573Z,16.07
2022-11-15T00:13:34.074Z,15.50
2022-11-15T00:16:02.599Z,15.60
2022-11-15T00:18:31.196Z,15.90
2022-11-15T00:21:10.335Z,15.87
2022-11-15T00:23:37.480Z,16.17
2022-11-15T00:26:04.822Z,16.83
2022-11-15T00:28:31.996Z,17.80
2022-11-15T00:31:08.234Z,16.97
2022-11-15T00:33:35.348Z,16.07
2022-11-15T00:36:05.830Z,17.73
2022-11-15T00:38:34.825Z,16.73
2022-11-15T00:41:07.947Z,17.03
2022-11-15T00:43:36.575Z,16.33
2022-11-15T00:46:03.884Z,18.10
2022-11-15T00:48:31.279Z,17.97
2022-11-15T00:50:59.054Z,19.40
2022-11-15T00:53:26.274Z,17.60
2022-11-15T00:55:53.517Z,18.40
2022-11-15T00:58:20.708Z,19.50
2022-11-15T01:00:47.914Z,17.93
2022-11-15T01:03:15.108Z,19.90
2022-11-15T01:05:42.223Z,19.40
2022-11-15T01:08:15.556Z,19.90
2022-11-15T01:10:42.762Z,19.53
2022-11-15T01:13:09.951Z,19.80
2022-11-15T01:15:41.553Z,19.97
2022-11-15T01:18:09.004Z,20.13
2022-11-15T01:20:40.262Z,21.67
2022-11-15T01:23:07.363Z,23.13
2022-11-15T01:25:34.408Z,21.57
2022-11-15T01:28:01.471Z,22.97
2022-11-15T01:30:28.546Z,22.47
2022-11-15T01:32:55.588Z,23.97
2022-11-15T01:35:22.620Z,23.90
2022-11-15T01:37:49.611Z,24.20
2022-11-15T01:40:16.725Z,25.07
2022-11-15T01:42:43.757Z,23.47
2022-11-15T01:45:17.596Z,22.90
2022-11-15T01:47:52.677Z,24.20
2022-11-15T01:50:26.069Z,24.70
2022-11-15T01:52:53.304Z,26.03
2022-11-15T01:55:26.473Z,25.73
2022-11-15T01:58:01.023Z,24.80
2022-11-15T02:00:29.809Z,24.30
2022-11-15T02:02:57.212Z,25.23
2022-11-15T02:05:24.386Z,25.33
2022-11-15T02:07:52.329Z,23.63
2022-11-15T02:10:23.560Z,23.07
2022-11-15T02:12:51.920Z,23.23
2022-11-15T02:15:19.344Z,22.90
2022-11-15T02:18:22.438Z,22.27
2022-11-15T02:21:37.065Z,23.17
2022-11-15T02:24:23.356Z,23.47
2022-11-15T02:27:31.547Z,24.80
2022-11-15T02:30:42.140Z,22.53
2022-11-15T02:33:51.351Z,23.23
2022-11-15T02:36:43.206Z,22.80
2022-11-15T02:39:45.662Z,23.83
2022-11-15T02:42:45.506Z,24.80
2022-11-15T02:45:22.620Z,24.47
2022-11-15T02:47:53.491Z,23.57
2022-11-15T02:50:25.571Z,24.33
2022-11-15T02:52:52.894Z,24.43
2022-11-15T02:55:34.474Z,24.43
2022-11-15T02:58:47.160Z,25.80
2022-11-15T03:01:39.162Z,25.83
2022-11-15T03:04:56.732Z,26.17
2022-11-15T03:07:47.252Z,27.20
2022-11-15T03:10:47.087Z,25.73
2022-11-15T03:13:37.740Z,26.73
2022-11-15T03:16:16.245Z,26.30
2022-11-15T03:18:49.231Z,28.67
2022-11-15T03:21:19.933Z,27.33
2022-11-15T03:23:49.898Z,28.23
2022-11-15T03:26:19.723Z,26.33
2022-11-15T03:29:15.532Z,27.43
2022-11-15T03:31:50.724Z,29.07
2022-11-15T03:34:28.664Z,27.73
2022-11-15T03:36:55.999Z,26.20
2022-11-15T03:39:24.469Z,26.97
2022-11-15T03:42:26.395Z,27.93
2022-11-15T03:45:04.440Z,26.47
2022-11-15T03:47:53.092Z,28.13
2022-11-15T03:50:23.276Z,26.60
2022-11-15T03:52:51.084Z,28.20
2022-11-15T03:55:22.524Z,27.97
2022-11-15T03:57:59.224Z,27.40
2022-11-15T04:00:26.642Z,26.20
2022-11-15T04:02:53.733Z,29.07
2022-11-15T04:05:20.815Z,27.73
2022-11-15T04:07:47.810Z,26.90
2022-11-15T04:10:15.704Z,28.57
2022-11-15T04:12:50.423Z,27.77
2022-11-15T04:15:23.708Z,27.67
2022-11-15T04:17:54.628Z,27.77
2022-11-15T04:20:42.420Z,29.10
2022-11-15T04:23:35.038Z,29.20
2022-11-15T04:26:13.848Z,29.87
2022-11-15T04:29:00.975Z,29.57
2022-11-15T04:31:29.205Z,29.23
2022-11-15T04:33:57.032Z,28.53
2022-11-15T04:36:43.519Z,28.50
2022-11-15T04:39:10.575Z,26.40
2022-11-15T04:41:37.811Z,28.13
2022-11-15T04:44:04.922Z,28.53
2022-11-15T04:46:32.361Z,28.00
2022-11-15T04:48:59.618Z,27.87
2022-11-15T04:51:27.806Z,25.60
2022-11-15T04:53:54.906Z,28.93
2022-11-15T04:56:21.948Z,26.27
2022-11-15T04:58:51.912Z,27.67
2022-11-15T05:01:19.292Z,26.27
2022-11-15T05:04:05.532Z,26.00
2022-11-15T05:06:32.845Z,26.13
2022-11-15T05:09:00.197Z,25.97
2022-11-15T05:11:28.472Z,27.63
2022-11-15T05:13:56.221Z,27.00
2022-11-15T05:16:23.562Z,28.40
2022-11-15T05:18:55.004Z,26.43
2022-11-15T05:21:22.955Z,24.57
2022-11-15T05:23:50.337Z,25.97
2022-11-15T05:26:19.101Z,25.20
2022-11-15T05:28:46.236Z,26.20
2022-11-15T05:31:16.673Z,24.77
2022-11-15T05:33:45.434Z,24.00
2022-11-15T05:36:42.068Z,26.53
2022-11-15T05:39:10.147Z,23.73
2022-11-15T05:41:49.337Z,26.93
2022-11-15T05:44:22.285Z,24.23
2022-11-15T05:46:50.487Z,25.60
2022-11-15T05:49:23.280Z,25.80
2022-11-15T05:51:50.900Z,26.17
2022-11-15T05:54:20.652Z,23.37
2022-11-15T05:56:47.893Z,25.93
2022-11-15T05:59:15.087Z,24.77
2022-11-15T06:01:42.366Z,25.53
2022-11-15T06:04:09.628Z,25.20
2022-11-15T06:06:36.785Z,25.03
2022-11-15T06:09:04.098Z,24.13
2022-11-15T06:11:31.160Z,23.33
2022-11-15T06:13:58.209Z,24.27
2022-11-15T06:16:25.313Z,24.40
2022-11-15T06:18:52.304Z,22.30
2022-11-15T06:21:19.326Z,22.00
2022-11-15T06:23:46.327Z,23.40
2022-11-15T06:26:13.416Z,22.63
2022-11-15T06:28:40.388Z,22.73
2022-11-15T06:31:11.995Z,22.80
2022-11-15T06:33:40.607Z,22.33
2022-11-15T06:36:17.525Z,24.63
2022-11-15T06:38:45.943Z,23.60
2022-11-15T06:41:15.068Z,24.47
2022-11-15T06:43:42.722Z,21.93
2022-11-15T06:46:09.946Z,22.73
2022-11-15T06:48:37.413Z,24.03
2022-11-15T06:51:05.832Z,23.53
2022-11-15T06:53:33.914Z,23.63
2022-11-15T06:56:07.575Z,24.47
2022-11-15T06:58:36.109Z,24.00
2022-11-15T07:01:10.400Z,25.10
2022-11-15T07:03:40.918Z,23.97
2022-11-15T07:06:09.283Z,23.53
2022-11-15T07:08:37.033Z,22.80
2022-11-15T07:11:07.787Z,23.03
2022-11-15T07:13:37.038Z,22.13
2022-11-15T07:16:11.244Z,20.97
2022-11-15T07:18:40.508Z,25.83
2022-11-15T07:21:11.613Z,23.73
2022-11-15T07:23:39.930Z,20.23
2022-11-15T07:26:08.057Z,19.43
2022-11-15T07:28:35.958Z,19.97
2022-11-15T07:31:05.613Z,19.20
2022-11-15T07:33:32.836Z,21.30
2022-11-15T07:36:06.103Z,19.37
2022-11-15T07:38:39.391Z,19.87
2022-11-15T07:41:09.414Z,21.53
2022-11-15T07:43:36.530Z,21.30
2022-11-15T07:46:10.277Z,20.17
2022-11-15T07:48:44.552Z,20.50
2022-11-15T07:51:15.325Z,21.53
2022-11-15T07:53:45.749Z,21.00
2022-11-15T07:56:13.274Z,20.27
2022-11-15T07:58:40.380Z,20.43
2022-11-15T08:01:10.023Z,21.13
2022-11-15T08:03:38.076Z,21.13
2022-11-15T08:06:05.648Z,21.37
2022-11-15T08:08:32.743Z,20.20
2022-11-15T08:11:00.327Z,21.13
2022-11-15T08:13:27.403Z,21.13
2022-11-15T08:16:03.064Z,20.60
2022-11-15T08:18:30.105Z,21.57
2022-11-15T08:21:01.521Z,20.87
2022-11-15T08:23:29.292Z,20.07
2022-11-15T08:26:04.252Z,21.27
2022-11-15T08:28:32.503Z,20.80
2022-11-15T08:30:59.516Z,21.50
2022-11-15T08:33:26.525Z,19.10
2022-11-15T08:35:53.563Z,20.00
2022-11-15T08:38:20.544Z,18.57
2022-11-15T08:40:47.617Z,19.80
2022-11-15T08:43:14.582Z,20.53
2022-11-15T08:45:41.514Z,18.73
2022-11-15T08:48:08.507Z,19.23
2022-11-15T08:50:35.674Z,20.37
2022-11-15T08:53:09.363Z,18.60
2022-11-15T08:55:40.716Z,19.67
2022-11-15T08:58:08.004Z,21.53
2022-11-15T09:00:35.090Z,21.03
2022-11-15T09:03:06.796Z,19.90
2022-11-15T09:05:38.734Z,21.03
2022-11-15T09:08:19.007Z,21.03
2022-11-15T09:10:53.303Z,20.97
2022-11-15T09:13:20.314Z,20.37
2022-11-15T09:15:47.408Z,20.50
2022-11-15T09:18:14.478Z,19.73
2022-11-15T09:20:41.431Z,20.87
2022-11-15T09:23:08.498Z,20.93
2022-11-15T09:25:35.511Z,19.83
2022-11-15T09:28:06.558Z,21.03
2022-11-15T09:30:33.525Z,20.50
2022-11-15T09:33:06.885Z,18.70
2022-11-15T09:35:33.862Z,21.03
2022-11-15T09:38:00.887Z,20.73
2022-11-15T09:40:28.746Z,21.57
2022-11-15T09:43:17.220Z,21.77
2022-11-15T09:46:29.844Z,21.27
2022-11-15T09:49:05.219Z,21.73
2022-11-15T09:51:48.556Z,20.73
2022-11-15T09:54:53.860Z,21.37
2022-11-15T09:57:55.402Z,21.73
2022-11-15T10:00:51.213Z,21.93
2022-11-15T10:03:29.903Z,21.57
2022-11-15T10:06:03.707Z,22.63
2022-11-15T10:09:24.056Z,21.70
2022-11-15T10:11:51.555Z,22.30
2022-11-15T10:14:24.653Z,22.77
2022-11-15T10:17:25.139Z,22.77
2022-11-15T10:20:14.427Z,22.37
2022-11-15T10:22:52.650Z,22.43
2022-11-15T10:25:33.409Z,22.50
2022-11-15T10:28:31.430Z,23.70
2022-11-15T10:31:05.305Z,22.53
2022-11-15T10:33:40.220Z,22.57
2022-11-15T10:36:10.020Z,23.13
2022-11-15T10:38:55.106Z,21.93
2022-11-15T10:41:30.818Z,23.90
2022-11-15T10:44:32.218Z,22.97
2022-11-15T10:46:59.169Z,23.93
2022-11-15T10:49:31.718Z,23.07
2022-11-15T10:52:12.410Z,23.10
2022-11-15T10:54:46.537Z,24.23
2022-11-15T10:57:53.484Z,23.87
2022-11-15T11:00:20.274Z,23.73
2022-11-15T11:02:57.937Z,24.17
2022-11-15T11:05:41.663Z,23.73
2022-11-15T11:08:12.328Z,22.87
2022-11-15T11:11:00.193Z,24.80
2022-11-15T11:13:30.223Z,24.20
2022-11-15T11:16:14.951Z,23.93
2022-11-15T11:19:19.410Z,25.43
2022-11-15T11:22:27.070Z,24.03
2022-11-15T11:25:14.951Z,23.73
2022-11-15T11:27:56.509Z,23.30
2022-11-15T11:30:53.707Z,25.40
2022-11-15T11:33:33.549Z,23.13
2022-11-15T11:36:16.241Z,25.00
2022-11-15T11:39:11.623Z,23.77
2022-11-15T11:42:14.965Z,25.20
2022-11-15T11:45:09.222Z,26.63
2022-11-15T11:47:52.268Z,26.43
2022-11-15T11:50:23.603Z,25.43
2022-11-15T11:53:16.303Z,26.57
2022-11-15T11:55:53.937Z,25.77
2022-11-15T11:58:35.218Z,26.13
2022-11-15T12:01:31.828Z,27.93
2022-11-15T12:04:12.640Z,27.27
2022-11-15T12:06:54.560Z,24.27
2022-11-15T12:09:39.301Z,26.17
2022-11-15T12:12:12.657Z,26.17
2022-11-15T12:15:04.606Z,25.60
2022-11-15T12:17:33.179Z,25.80
2022-11-15T12:20:21.092Z,26.90
2022-11-15T12:23:13.635Z,27.23
2022-11-15T12:25:46.663Z,25.83
2022-11-15T12:28:29.451Z,26.93
2022-11-15T12:31:26.950Z,27.57
2022-11-15T12:34:01.778Z,25.57
2022-11-15T12:36:45.287Z,29.07
2022-11-15T12:39:14.555Z,25.93
2022-11-15T12:42:05.912Z,27.50
2022-11-15T12:44:32.815Z,27.87
2022-11-15T12:47:09.594Z,27.37
2022-11-15T12:49:36.463Z,26.80
2022-11-15T12:52:03.306Z,27.30
2022-11-15T12:54:42.248Z,27.97
2022-11-15T12:57:09.160Z,27.93
2022-11-15T12:59:59.583Z,26.97
2022-11-15T13:02:38.884Z,27.93
2022-11-15T13:05:37.711Z,27.03
2022-11-15T13:08:04.747Z,26.10
2022-11-15T13:10:34.863Z,28.27
2022-11-15T13:13:09.985Z,28.03
2022-11-15T13:15:52.711Z,26.53
2022-11-15T13:18:41.632Z,26.67
2022-11-15T13:21:44.202Z,28.33
2022-11-15T13:24:16.899Z,26.77
2022-11-15T13:26:44.381Z,27.80
2022-11-15T13:29:19.763Z,28.67
2022-11-15T13:31:47.949Z,28.27
2022-11-15T13:34:51.128Z,28.37
2022-11-15T13:37:21.759Z,26.60
2022-11-15T13:39:50.187Z,28.03
2022-11-15T13:42:19.945Z,26.40
2022-11-15T13:45:05.505Z,26.33
2022-11-15T13:47:32.805Z,26.90
2022-11-15T13:50:02.185Z,24.50
2022-11-15T13:52:38.045Z,25.93
2022-11-15T13:55:21.408Z,27.13
2022-11-15T13:58:07.623Z,25.00
2022-11-15T14:00:36.930Z,26.17
2022-11-15T14:03:53.357Z,26.57
2022-11-15T14:06:24.105Z,27.83
2022-11-15T14:09:12.310Z,28.87
2022-11-15T14:11:54.487Z,26.83
2022-11-15T14:14:24.432Z,28.47
2022-11-15T14:16:59.048Z,28.90
2022-11-15T14:19:25.881Z,26.43
2022-11-15T14:22:17.346Z,27.60
2022-11-15T14:24:47.523Z,28.43
2022-11-15T14:27:26.409Z,27.20
2022-11-15T14:29:54.698Z,25.57
2022-11-15T14:32:28.835Z,25.23
2022-11-15T14:35:01.382Z,25.13
2022-11-15T14:37:35.912Z,24.70
2022-11-15T14:40:06.079Z,24.03
2022-11-15T14:42:33.769Z,24.47
2022-11-15T14:45:00.753Z,25.83
2022-11-15T14:47:27.766Z,24.90
2022-11-15T14:49:54.742Z,25.03
2022-11-15T14:52:36.633Z,26.87
2022-11-15T14:55:16.769Z,25.60
2022-11-15T14:57:43.833Z,27.13
2022-11-15T15:00:11.483Z,26.37
2022-11-15T15:02:38.717Z,25.37
2022-11-15T15:05:36.244Z,26.57
2022-11-15T15:08:04.037Z,26.20
2022-11-15T15:10:44.288Z,28.00
2022-11-15T15:13:25.534Z,27.37
2022-11-15T15:15:53.207Z,29.10
2022-11-15T15:18:21.204Z,25.70
2022-11-15T15:20:57.751Z,27.97
2022-11-15T15:23:26.644Z,24.87
2022-11-15T15:25:54.180Z,25.73
2022-11-15T15:28:21.383Z,29.67
2022-11-15T15:30:48.407Z,28.03
2022-11-15T15:33:15.392Z,29.77
2022-11-15T15:35:43.040Z,29.67
2022-11-15T15:38:13.785Z,29.03
2022-11-15T15:40:40.930Z,29.17
2022-11-15T15:43:10.141Z,29.70
2022-11-15T15:45:42.264Z,29.87
2022-11-15T15:48:14.912Z,29.90
2022-11-15T15:50:43.999Z,29.33
2022-11-15T15:53:12.583Z,30.07
2022-11-15T15:55:40.069Z,28.97
2022-11-15T15:58:07.679Z,29.93
2022-11-15T16:00:34.788Z,30.03
2022-11-15T16:03:01.804Z,29.17
2022-11-15T16:05:28.825Z,29.10
2022-11-15T16:07:55.995Z,31.23
2022-11-15T16:10:30.323Z,30.03
2022-11-15T16:12:59.276Z,31.20
2022-11-15T16:15:30.607Z,31.93
2022-11-15T16:18:01.736Z,30.53
2022-11-15T16:20:46.912Z,28.57
2022-11-15T16:23:16.747Z,28.40
2022-11-15T16:25:58.879Z,29.03
2022-11-15T16:28:32.498Z,27.93
2022-11-15T16:31:06.826Z,29.60
2022-11-15T16:33:35.865Z,27.83
2022-11-15T16:36:05.546Z,28.80
2022-11-15T16:38:33.140Z,25.97
2022-11-15T16:41:00.351Z,26.43
2022-11-15T16:43:27.347Z,25.87
2022-11-15T16:45:55.551Z,27.47
2022-11-15T16:48:26.964Z,25.90
2022-11-15T16:50:59.328Z,24.83
2022-11-15T16:53:27.889Z,27.87
2022-11-15T16:55:58.075Z,26.03
2022-11-15T16:58:25.178Z,26.23
2022-11-15T17:00:54.091Z,27.00
2022-11-15T17:03:25.354Z,26.53
2022-11-15T17:05:52.890Z,24.93
2022-11-15T17:08:22.076Z,26.90
2022-11-15T17:10:49.453Z,24.53
2022-11-15T17:13:16.417Z,26.13
2022-11-15T17:15:44.176Z,23.13
2022-11-15T17:18:15.802Z,24.07
2022-11-15T17:20:43.938Z,22.77
2022-11-15T17:23:14.826Z,22.57
2022-11-15T17:25:42.136Z,23.33
2022-11-15T17:28:09.485Z,22.60
2022-11-15T17:30:36.548Z,22.33
2022-11-15T17:33:03.690Z,21.80
2022-11-15T17:35:30.764Z,19.33
2022-11-15T17:37:57.915Z,20.40
2022-11-15T17:40:24.902Z,19.37
2022-11-15T17:42:51.845Z,19.50
2022-11-15T17:45:18.814Z,20.30
2022-11-15T17:47:45.761Z,19.80
2022-11-15T17:50:12.720Z,20.07
2022-11-15T17:52:39.725Z,22.90
2022-11-15T17:55:07.239Z,21.00
2022-11-15T17:57:34.146Z,20.70
2022-11-15T18:00:01.130Z,18.97
2022-11-15T18:02:28.112Z,19.43
2022-11-15T18:04:55.005Z,18.87
2022-11-15T18:07:22.067Z,19.57
2022-11-15T18:09:49.188Z,18.40
2022-11-15T18:12:16.192Z,20.50
2022-11-15T18:14:43.182Z,19.37
2022-11-15T18:17:10.163Z,19.10
2022-11-15T18:19:37.738Z,17.90
2022-11-15T18:22:07.265Z,18.67
2022-11-15T18:24:38.467Z,15.77
2022-11-15T18:27:08.273Z,17.10
2022-11-15T18:29:37.875Z,16.83
2022-11-15T18:32:11.769Z,16.63
2022-11-15T18:34:38.982Z,17.60
2022-11-15T18:37:06.235Z,16.33
2022-11-15T18:39:33.356Z,16.60
2022-11-15T18:42:00.560Z,16.63
2022-11-15T18:44:30.210Z,18.23
2022-11-15T18:46:58.152Z,18.90
2022-11-15T18:49:25.669Z,17.15
2022-11-15T18:51:52.664Z,15.50
2022-11-15T18:54:19.647Z,14.70
2022-11-15T18:56:47.209Z,15.33
2022-11-15T18:59:15.429Z,16.13
2022-11-15T19:01:48.758Z,15.87
2022-11-15T19:04:20.856Z,16.67
2022-11-15T19:06:50.111Z,16.20
2022-11-15T19:09:19.407Z,15.83
2022-11-15T19:11:48.859Z,16.40
2022-11-15T19:14:17.897Z,16.13
2022-11-15T19:16:52.419Z,17.10
2022-11-15T19:19:24.529Z,18.00
2022-11-15T19:21:52.903Z,15.63
2022-11-15T19:24:20.037Z,17.47
2022-11-15T19:26:47.430Z,16.67
2022-11-15T19:29:14.603Z,18.37
2022-11-15T19:31:42.354Z,17.53
2022-11-15T19:34:09.488Z,15.60
2022-11-15T19:36:40.369Z,15.57
2022-11-15T19:39:12.706Z,15.83
2022-11-15T19:41:42.608Z,15.50
2022-11-15T19:44:12.645Z,15.50
2022-11-15T19:46:41.169Z,15.40
2022-11-15T19:49:11.401Z,14.27
2022-11-15T19:51:41.681Z,14.70
2022-11-15T19:54:10.461Z,15.53
2022-11-15T19:56:39.669Z,15.10
2022-11-15T19:59:07.043Z,13.60
2022-11-15T20:01:38.061Z,13.17
2022-11-15T20:04:07.717Z,12.80
2022-11-15T20:06:41.957Z,13.37
2022-11-15T20:09:14.012Z,12.57
2022-11-15T20:11:41.055Z,13.67
2022-11-15T20:14:09.661Z,14.80
2022-11-15T20:16:36.771Z,15.73
2022-11-15T20:19:04.252Z,14.00
2022-11-15T20:21:31.365Z,14.93
2022-11-15T20:23:58.385Z,14.97
2022-11-15T20:26:25.638Z,14.93
2022-11-15T20:28:52.704Z,15.13
2022-11-15T20:31:19.907Z,14.23
2022-11-15T20:33:47.176Z,14.70
2022-11-15T20:36:16.043Z,14.73
2022-11-15T20:38:44.859Z,13.47
2022-11-15T20:41:15.049Z,13.93
2022-11-15T20:43:43.814Z,15.13
2022-11-15T20:46:12.540Z,12.93
2022-11-15T20:48:40.326Z,15.67
2022-11-15T20:51:16.486Z,14.70
2022-11-15T20:53:45.098Z,13.77
2022-11-15T20:56:17.024Z,12.77
2022-11-15T20:58:45.912Z,13.43
2022-11-15T21:01:15.718Z,13.40
2022-11-15T21:03:42.940Z,13.20
2022-11-15T21:06:11.414Z,13.07
2022-11-15T21:08:57.562Z,14.67
2022-11-15T21:11:43.808Z,14.57
2022-11-15T21:14:10.840Z,13.90
2022-11-15T21:16:39.127Z,14.33
2022-11-15T21:19:06.927Z,13.23
2022-11-15T21:21:36.240Z,13.53
2022-11-15T21:24:09.444Z,13.80
2022-11-15T21:26:37.617Z,10.63
2022-11-15T21:29:04.886Z,12.20
2022-11-15T21:31:32.210Z,11.10
2022-11-15T21:34:02.751Z,12.07
2022-11-15T21:36:30.460Z,11.03
2022-11-15T21:38:57.555Z,11.10
2022-11-15T21:41:24.613Z,10.63
2022-11-15T21:43:51.621Z,10.90
2022-11-15T21:46:18.708Z,11.00
2022-11-15T21:48:45.805Z,11.73
2022-11-15T21:51:13.090Z,11.13
2022-11-15T21:53:40.553Z,11.27
2022-11-15T21:56:08.092Z,11.60
2022-11-15T21:58:35.731Z,12.17
2022-11-15T22:01:21.664Z,11.97
2022-11-15T22:03:48.824Z,11.70
2022-11-15T22:06:18.113Z,11.00
2022-11-15T22:08:46.417Z,11.03
2022-11-15T22:11:14.868Z,11.33
2022-11-15T22:13:42.415Z,11.53
2022-11-15T22:16:10.345Z,11.67
2022-11-15T22:18:38.324Z,12.23
2022-11-15T22:21:13.567Z,12.93
2022-11-15T22:23:41.618Z,11.70
2022-11-15T22:26:13.026Z,12.33
2022-11-15T22:28:40.320Z,11.60
2022-11-15T22:31:07.784Z,12.43
2022-11-15T22:33:36.051Z,12.37
2022-11-15T22:36:05.184Z,13.50
2022-11-15T22:38:33.039Z,13.53
2022-11-15T22:41:00.449Z,12.63
2022-11-15T22:43:28.190Z,14.47
2022-11-15T22:45:58.285Z,12.93
2022-11-15T22:48:37.890Z,13.13
2022-11-15T22:51:06.042Z,12.50
2022-11-15T22:53:33.177Z,12.77
2022-11-15T22:56:03.089Z,14.47
2022-11-15T22:58:32.816Z,14.53
2022-11-15T23:01:03.120Z,15.47
2022-11-15T23:03:31.193Z,14.17
2022-11-15T23:06:04.813Z,15.87
2022-11-15T23:08:32.198Z,16.17
2022-11-15T23:11:21.962Z,15.23
2022-11-15T23:13:52.207Z,16.57
2022-11-15T23:16:23.611Z,14.60
2022-11-15T23:18:54.577Z,16.37
2022-11-15T23:21:43.863Z,15.80
2022-11-15T23:24:13.045Z,17.03
2022-11-15T23:26:41.588Z,15.63
2022-11-15T23:29:11.850Z,16.33
2022-11-15T23:32:01.938Z,16.67
2022-11-15T23:34:31.289Z,17.20
2022-11-15T23:36:59.012Z,16.13
2022-11-15T23:39:26.263Z,16.40
2022-11-15T23:41:53.361Z,17.20
2022-11-15T23:44:20.436Z,17.13
2022-11-15T23:46:47.504Z,16.77
2022-11-15T23:49:14.639Z,16.30
2022-11-15T23:51:41.768Z,15.67
2022-11-15T23:54:09.447Z,15.73
2022-11-15T23:56:36.614Z,15.90
2022-11-15T23:59:04.597Z,16.57
